Crane Forest, South Carolina
Current Conditions -  °F | °C
As of 11:53 AM on Friday 28 Nov 2014 (Local Time) from KCUB Reporting Station
Clear Clear  
Wind Chill: 44°   Ceiling: Unl
Heat Index: 44°   Visibility: 10mi
Dew Point: 18°   Wind: 0mph
Humidity: 35%   Direction: NA
Pressure: 30.39"   Gusts: NA
Location:  34.1179°N, 81.0612°W
Report Text: KCUB 281653Z AUTO 00000KT 10SM CLR 07/M08 A3039 RMK AO2 SLP292 T00671078
Loading
Personal Weather Stations






























Interactive Weather Map New forecast layout! Learn more

10-Day Weather Forecast

Advertisements
Track Severe Weather on mobile